sensor_id;sensor_type;location;lat;lon;timestamp;temperature;humidity
39525;DHT22;25203;50.754;6.978;2024-03-02T00:01:22;7.70;99.90
39525;DHT22;25203;50.754;6.978;2024-03-02T00:03:23;7.70;99.90
39525;DHT22;25203;50.754;6.978;2024-03-02T00:05:24;7.70;99.90
39525;DHT22;25203;50.754;6.978;2024-03-02T00:07:24;7.70;99.90
39525;DHT22;25203;50.754;6.978;2024-03-02T00:09:25;7.80;99.90
39525;DHT22;25203;50.754;6.978;2024-03-02T00:11:25;7.80;99.90
39525;DHT22;25203;50.754;6.978;2024-03-02T00:13:27;7.80;99.90
39525;DHT22;25203;50.754;6.978;2024-03-02T00:17:44;7.80;99.90
39525;DHT22;25203;50.754;6.978;2024-03-02T00:19:45;7.90;99.90
39525;DHT22;25203;50.754;6.978;2024-03-02T00:21:46;7.90;99.90
39525;DHT22;25203;50.754;6.978;2024-03-02T00:23:48;7.80;99.90
39525;DHT22;25203;50.754;6.978;2024-03-02T00:25:53;7.80;99.90
39525;DHT22;25203;50.754;6.978;2024-03-02T00:27:54;7.90;99.90
39525;DHT22;25203;50.754;6.978;2024-03-02T00:29:55;7.90;99.90
39525;DHT22;25203;50.754;6.978;2024-03-02T00:31:57;7.90;99.90
39525;DHT22;25203;50.754;6.978;2024-03-02T00:34:02;7.90;99.90
39525;DHT22;25203;50.754;6.978;2024-03-02T00:36:04;7.90;99.90
39525;DHT22;25203;50.754;6.978;2024-03-02T00:38:06;7.80;99.90
39525;DHT22;25203;50.754;6.978;2024-03-02T00:40:07;7.80;99.90
39525;DHT22;25203;50.754;6.978;2024-03-02T00:42:08;7.80;99.90
39525;DHT22;25203;50.754;6.978;2024-03-02T00:44:12;7.90;99.90
39525;DHT22;25203;50.754;6.978;2024-03-02T00:46:15;7.80;99.90
39525;DHT22;25203;50.754;6.978;2024-03-02T00:48:16;7.80;99.90
39525;DHT22;25203;50.754;6.978;2024-03-02T00:50:17;7.80;99.90
39525;DHT22;25203;50.754;6.978;2024-03-02T00:52:18;7.80;99.90
39525;DHT22;25203;50.754;6.978;2024-03-02T00:54:25;7.80;99.90
39525;DHT22;25203;50.754;6.978;2024-03-02T00:56:26;7.70;99.90
39525;DHT22;25203;50.754;6.978;2024-03-02T00:58:26;7.70;99.90
39525;DHT22;25203;50.754;6.978;2024-03-02T01:00:27;7.70;99.90
39525;DHT22;25203;50.754;6.978;2024-03-02T01:02:28;7.60;99.90
39525;DHT22;25203;50.754;6.978;2024-03-02T01:04:29;7.70;99.90
39525;DHT22;25203;50.754;6.978;2024-03-02T01:06:30;7.70;99.90
39525;DHT22;25203;50.754;6.978;2024-03-02T01:08:31;7.80;99.90
39525;DHT22;25203;50.754;6.978;2024-03-02T01:10:31;7.90;99.90
39525;DHT22;25203;50.754;6.978;2024-03-02T01:12:32;7.90;99.90
39525;DHT22;25203;50.754;6.978;2024-03-02T01:14:33;7.90;99.90
39525;DHT22;25203;50.754;6.978;2024-03-02T01:16:33;7.90;99.90
39525;DHT22;25203;50.754;6.978;2024-03-02T01:18:34;7.80;99.90
39525;DHT22;25203;50.754;6.978;2024-03-02T01:20:35;7.80;99.90
39525;DHT22;25203;50.754;6.978;2024-03-02T01:22:35;7.80;99.90
39525;DHT22;25203;50.754;6.978;2024-03-02T01:24:36;7.80;99.90
39525;DHT22;25203;50.754;6.978;2024-03-02T01:26:36;7.70;99.90
39525;DHT22;25203;50.754;6.978;2024-03-02T01:28:37;7.70;99.90
39525;DHT22;25203;50.754;6.978;2024-03-02T01:30:37;7.70;99.90
39525;DHT22;25203;50.754;6.978;2024-03-02T01:32:38;7.60;99.90
39525;DHT22;25203;50.754;6.978;2024-03-02T01:34:39;7.60;99.90
39525;DHT22;25203;50.754;6.978;2024-03-02T01:36:39;7.60;99.90
39525;DHT22;25203;50.754;6.978;2024-03-02T01:38:40;7.60;99.90
39525;DHT22;25203;50.754;6.978;2024-03-02T01:40:42;7.60;99.90
39525;DHT22;25203;50.754;6.978;2024-03-02T01:42:44;7.60;99.90
39525;DHT22;25203;50.754;6.978;2024-03-02T01:44:45;7.60;99.90
39525;DHT22;25203;50.754;6.978;2024-03-02T01:46:46;7.60;99.90
39525;DHT22;25203;50.754;6.978;2024-03-02T01:48:46;7.60;99.90
39525;DHT22;25203;50.754;6.978;2024-03-02T01:50:48;7.60;99.90
39525;DHT22;25203;50.754;6.978;2024-03-02T01:52:48;7.70;99.90
39525;DHT22;25203;50.754;6.978;2024-03-02T01:54:49;7.70;99.90
39525;DHT22;25203;50.754;6.978;2024-03-02T01:56:50;7.80;99.90
39525;DHT22;25203;50.754;6.978;2024-03-02T01:58:50;7.80;99.90
39525;DHT22;25203;50.754;6.978;2024-03-02T02:00:51;7.80;99.90
39525;DHT22;25203;50.754;6.978;2024-03-02T02:02:52;7.80;99.90
39525;DHT22;25203;50.754;6.978;2024-03-02T02:04:53;7.80;99.90
39525;DHT22;25203;50.754;6.978;2024-03-02T02:06:54;7.80;99.90
39525;DHT22;25203;50.754;6.978;2024-03-02T02:08:54;7.80;99.90
39525;DHT22;25203;50.754;6.978;2024-03-02T02:10:55;7.80;99.90
39525;DHT22;25203;50.754;6.978;2024-03-02T02:12:56;7.70;99.90
39525;DHT22;25203;50.754;6.978;2024-03-02T02:14:56;7.70;99.90
39525;DHT22;25203;50.754;6.978;2024-03-02T02:16:57;7.70;99.90
39525;DHT22;25203;50.754;6.978;2024-03-02T02:18:57;7.70;99.90
39525;DHT22;25203;50.754;6.978;2024-03-02T02:20:58;7.70;99.90
39525;DHT22;25203;50.754;6.978;2024-03-02T02:23:03;7.60;99.90
39525;DHT22;25203;50.754;6.978;2024-03-02T02:25:06;7.60;99.90
39525;DHT22;25203;50.754;6.978;2024-03-02T02:27:06;7.60;99.90
39525;DHT22;25203;50.754;6.978;2024-03-02T02:29:07;7.60;99.90
39525;DHT22;25203;50.754;6.978;2024-03-02T02:31:07;7.60;99.90
39525;DHT22;25203;50.754;6.978;2024-03-02T02:33:08;7.60;99.90
39525;DHT22;25203;50.754;6.978;2024-03-02T02:35:09;7.70;99.90
39525;DHT22;25203;50.754;6.978;2024-03-02T02:37:10;7.70;99.90
39525;DHT22;25203;50.754;6.978;2024-03-02T02:39:14;7.70;99.90
39525;DHT22;25203;50.754;6.978;2024-03-02T02:41:16;7.70;99.90
39525;DHT22;25203;50.754;6.978;2024-03-02T02:43:16;7.70;99.90
39525;DHT22;25203;50.754;6.978;2024-03-02T02:45:17;7.70;99.90
39525;DHT22;25203;50.754;6.978;2024-03-02T02:47:18;7.60;99.90
39525;DHT22;25203;50.754;6.978;2024-03-02T02:49:18;7.60;99.90
39525;DHT22;25203;50.754;6.978;2024-03-02T02:51:19;7.60;99.90
39525;DHT22;25203;50.754;6.978;2024-03-02T02:53:19;7.60;99.90
39525;DHT22;25203;50.754;6.978;2024-03-02T02:55:20;7.60;99.90
39525;DHT22;25203;50.754;6.978;2024-03-02T02:57:20;7.50;99.90
39525;DHT22;25203;50.754;6.978;2024-03-02T02:59:21;7.50;99.90
39525;DHT22;25203;50.754;6.978;2024-03-02T03:01:22;7.50;99.90
39525;DHT22;25203;50.754;6.978;2024-03-02T03:03:22;7.50;99.90
39525;DHT22;25203;50.754;6.978;2024-03-02T03:05:23;7.50;99.90
39525;DHT22;25203;50.754;6.978;2024-03-02T03:07:23;7.50;99.90
39525;DHT22;25203;50.754;6.978;2024-03-02T03:09:24;7.60;99.90
39525;DHT22;25203;50.754;6.978;2024-03-02T03:11:25;7.60;99.90
39525;DHT22;25203;50.754;6.978;2024-03-02T03:13:26;7.60;99.90
39525;DHT22;25203;50.754;6.978;2024-03-02T03:15:27;7.60;99.90
39525;DHT22;25203;50.754;6.978;2024-03-02T03:17:27;7.60;99.90
39525;DHT22;25203;50.754;6.978;2024-03-02T03:19:29;7.60;99.90
39525;DHT22;25203;50.754;6.978;2024-03-02T03:21:29;7.60;99.90
39525;DHT22;25203;50.754;6.978;2024-03-02T03:23:30;7.60;99.90
39525;DHT22;25203;50.754;6.978;2024-03-02T03:25:31;7.60;99.90
39525;DHT22;25203;50.754;6.978;2024-03-02T03:27:31;7.50;99.90
39525;DHT22;25203;50.754;6.978;2024-03-02T03:29:32;7.50;99.90
39525;DHT22;25203;50.754;6.978;2024-03-02T03:31:33;7.50;99.90
39525;DHT22;25203;50.754;6.978;2024-03-02T03:33:33;7.50;99.90
39525;DHT22;25203;50.754;6.978;2024-03-02T03:35:36;7.50;99.90
39525;DHT22;25203;50.754;6.978;2024-03-02T03:37:37;7.50;99.90
39525;DHT22;25203;50.754;6.978;2024-03-02T03:39:38;7.50;99.90
39525;DHT22;25203;50.754;6.978;2024-03-02T03:41:40;7.50;99.90
39525;DHT22;25203;50.754;6.978;2024-03-02T03:43:41;7.60;99.90
39525;DHT22;25203;50.754;6.978;2024-03-02T03:45:41;7.50;99.90
39525;DHT22;25203;50.754;6.978;2024-03-02T03:47:42;7.50;99.90
39525;DHT22;25203;50.754;6.978;2024-03-02T03:49:42;7.40;99.90
39525;DHT22;25203;50.754;6.978;2024-03-02T03:51:43;7.30;99.90
39525;DHT22;25203;50.754;6.978;2024-03-02T03:53:43;7.20;99.90
39525;DHT22;25203;50.754;6.978;2024-03-02T03:55:44;7.10;99.90
39525;DHT22;25203;50.754;6.978;2024-03-02T03:57:47;7.10;99.90
39525;DHT22;25203;50.754;6.978;2024-03-02T03:59:47;7.10;99.90
39525;DHT22;25203;50.754;6.978;2024-03-02T04:01:48;7.00;99.90
39525;DHT22;25203;50.754;6.978;2024-03-02T04:03:49;6.90;99.90
39525;DHT22;25203;50.754;6.978;2024-03-02T04:05:49;6.80;99.90
39525;DHT22;25203;50.754;6.978;2024-03-02T04:07:50;6.70;99.90
39525;DHT22;25203;50.754;6.978;2024-03-02T04:09:51;6.60;99.90
39525;DHT22;25203;50.754;6.978;2024-03-02T04:11:51;6.50;99.90
39525;DHT22;25203;50.754;6.978;2024-03-02T04:13:52;6.50;99.90
39525;DHT22;25203;50.754;6.978;2024-03-02T04:15:52;6.30;99.90
39525;DHT22;25203;50.754;6.978;2024-03-02T04:17:54;6.20;99.90
39525;DHT22;25203;50.754;6.978;2024-03-02T04:19:55;6.20;99.90
39525;DHT22;25203;50.754;6.978;2024-03-02T04:21:56;6.30;99.90
39525;DHT22;25203;50.754;6.978;2024-03-02T04:23:56;6.30;99.90
39525;DHT22;25203;50.754;6.978;2024-03-02T04:26:00;6.40;99.90
39525;DHT22;25203;50.754;6.978;2024-03-02T04:28:00;6.30;99.90
39525;DHT22;25203;50.754;6.978;2024-03-02T04:30:01;6.30;99.90
39525;DHT22;25203;50.754;6.978;2024-03-02T04:32:02;6.30;99.90
39525;DHT22;25203;50.754;6.978;2024-03-02T04:34:02;6.30;99.90
39525;DHT22;25203;50.754;6.978;2024-03-02T04:36:03;6.30;99.90
39525;DHT22;25203;50.754;6.978;2024-03-02T04:38:04;6.30;99.90
39525;DHT22;25203;50.754;6.978;2024-03-02T04:40:05;6.40;99.90
39525;DHT22;25203;50.754;6.978;2024-03-02T04:42:08;6.30;99.90
39525;DHT22;25203;50.754;6.978;2024-03-02T04:44:09;6.30;99.90
39525;DHT22;25203;50.754;6.978;2024-03-02T04:46:10;6.20;99.90
39525;DHT22;25203;50.754;6.978;2024-03-02T04:48:11;6.20;99.90
39525;DHT22;25203;50.754;6.978;2024-03-02T04:50:11;6.10;99.90
39525;DHT22;25203;50.754;6.978;2024-03-02T04:52:12;6.10;99.90
39525;DHT22;25203;50.754;6.978;2024-03-02T04:54:12;6.00;99.90
39525;DHT22;25203;50.754;6.978;2024-03-02T04:56:14;5.90;99.90
39525;DHT22;25203;50.754;6.978;2024-03-02T04:58:40;5.90;99.90
39525;DHT22;25203;50.754;6.978;2024-03-02T05:00:40;5.90;99.90
39525;DHT22;25203;50.754;6.978;2024-03-02T05:02:43;5.90;99.90
39525;DHT22;25203;50.754;6.978;2024-03-02T05:04:43;5.90;99.90
39525;DHT22;25203;50.754;6.978;2024-03-02T05:06:44;6.00;99.90
39525;DHT22;25203;50.754;6.978;2024-03-02T05:08:45;6.00;99.90
39525;DHT22;25203;50.754;6.978;2024-03-02T05:10:45;6.10;99.90
39525;DHT22;25203;50.754;6.978;2024-03-02T05:12:46;6.00;99.90
39525;DHT22;25203;50.754;6.978;2024-03-02T05:14:46;6.00;99.90
39525;DHT22;25203;50.754;6.978;2024-03-02T05:16:47;5.90;99.90
39525;DHT22;25203;50.754;6.978;2024-03-02T05:18:47;5.80;99.90
39525;DHT22;25203;50.754;6.978;2024-03-02T05:20:48;5.80;99.90
39525;DHT22;25203;50.754;6.978;2024-03-02T05:22:49;5.70;99.90
39525;DHT22;25203;50.754;6.978;2024-03-02T05:24:50;5.60;99.90
39525;DHT22;25203;50.754;6.978;2024-03-02T05:26:50;5.40;99.90
39525;DHT22;25203;50.754;6.978;2024-03-02T05:28:51;5.20;99.90
39525;DHT22;25203;50.754;6.978;2024-03-02T05:30:52;5.20;99.90
39525;DHT22;25203;50.754;6.978;2024-03-02T05:32:52;5.10;99.90
39525;DHT22;25203;50.754;6.978;2024-03-02T05:34:53;5.10;99.90
39525;DHT22;25203;50.754;6.978;2024-03-02T05:36:53;5.10;99.90
39525;DHT22;25203;50.754;6.978;2024-03-02T05:38:54;5.20;99.90
39525;DHT22;25203;50.754;6.978;2024-03-02T05:40:54;5.20;99.90
39525;DHT22;25203;50.754;6.978;2024-03-02T05:42:55;5.20;99.90
39525;DHT22;25203;50.754;6.978;2024-03-02T05:44:56;5.20;99.90
39525;DHT22;25203;50.754;6.978;2024-03-02T05:46:56;5.20;99.90
39525;DHT22;25203;50.754;6.978;2024-03-02T05:48:57;5.30;99.90
39525;DHT22;25203;50.754;6.978;2024-03-02T05:50:57;5.30;99.90
39525;DHT22;25203;50.754;6.978;2024-03-02T05:52:58;5.40;99.90
39525;DHT22;25203;50.754;6.978;2024-03-02T05:54:59;5.50;99.90
39525;DHT22;25203;50.754;6.978;2024-03-02T05:56:59;5.60;99.90
39525;DHT22;25203;50.754;6.978;2024-03-02T05:59:17;5.70;99.90
39525;DHT22;25203;50.754;6.978;2024-03-02T06:01:17;5.70;99.90
39525;DHT22;25203;50.754;6.978;2024-03-02T06:03:22;5.90;99.90
39525;DHT22;25203;50.754;6.978;2024-03-02T06:05:23;6.00;99.90
39525;DHT22;25203;50.754;6.978;2024-03-02T06:07:25;6.10;99.90
39525;DHT22;25203;50.754;6.978;2024-03-02T06:09:25;6.20;99.90
39525;DHT22;25203;50.754;6.978;2024-03-02T06:11:26;6.20;99.90
39525;DHT22;25203;50.754;6.978;2024-03-02T06:13:27;6.30;99.90
39525;DHT22;25203;50.754;6.978;2024-03-02T06:15:27;6.30;99.90
39525;DHT22;25203;50.754;6.978;2024-03-02T06:17:28;6.40;99.90
39525;DHT22;25203;50.754;6.978;2024-03-02T06:19:29;6.40;99.90
39525;DHT22;25203;50.754;6.978;2024-03-02T06:21:29;6.40;99.90
39525;DHT22;25203;50.754;6.978;2024-03-02T06:23:30;6.40;99.90
39525;DHT22;25203;50.754;6.978;2024-03-02T06:25:31;6.40;99.90
39525;DHT22;25203;50.754;6.978;2024-03-02T06:27:31;6.40;99.90
39525;DHT22;25203;50.754;6.978;2024-03-02T06:29:35;6.30;99.90
39525;DHT22;25203;50.754;6.978;2024-03-02T06:31:35;6.30;99.90
39525;DHT22;25203;50.754;6.978;2024-03-02T06:33:36;6.20;99.90
39525;DHT22;25203;50.754;6.978;2024-03-02T06:35:37;6.20;99.90
39525;DHT22;25203;50.754;6.978;2024-03-02T06:37:38;6.20;99.90
39525;DHT22;25203;50.754;6.978;2024-03-02T06:39:43;6.20;99.90
39525;DHT22;25203;50.754;6.978;2024-03-02T06:41:44;6.20;99.90
39525;DHT22;25203;50.754;6.978;2024-03-02T06:43:47;6.20;99.90
39525;DHT22;25203;50.754;6.978;2024-03-02T06:45:48;6.20;99.90
39525;DHT22;25203;50.754;6.978;2024-03-02T06:47:48;6.30;99.90
39525;DHT22;25203;50.754;6.978;2024-03-02T06:49:49;6.30;99.90
39525;DHT22;25203;50.754;6.978;2024-03-02T06:51:49;6.30;99.90
39525;DHT22;25203;50.754;6.978;2024-03-02T06:53:50;6.30;99.90
39525;DHT22;25203;50.754;6.978;2024-03-02T06:55:51;6.30;99.90
39525;DHT22;25203;50.754;6.978;2024-03-02T06:57:51;6.30;99.90
39525;DHT22;25203;50.754;6.978;2024-03-02T06:59:52;6.30;99.90
39525;DHT22;25203;50.754;6.978;2024-03-02T07:01:55;6.30;99.90
39525;DHT22;25203;50.754;6.978;2024-03-02T07:03:56;6.40;99.90
39525;DHT22;25203;50.754;6.978;2024-03-02T07:05:57;6.30;99.90
39525;DHT22;25203;50.754;6.978;2024-03-02T07:07:58;6.30;99.90
39525;DHT22;25203;50.754;6.978;2024-03-02T07:09:58;6.30;99.90
39525;DHT22;25203;50.754;6.978;2024-03-02T07:11:59;6.30;99.90
39525;DHT22;25203;50.754;6.978;2024-03-02T07:13:59;6.30;99.90
39525;DHT22;25203;50.754;6.978;2024-03-02T07:16:00;6.40;99.90
39525;DHT22;25203;50.754;6.978;2024-03-02T07:18:03;6.50;99.90
39525;DHT22;25203;50.754;6.978;2024-03-02T07:20:05;6.60;99.90
39525;DHT22;25203;50.754;6.978;2024-03-02T07:22:07;6.80;99.90
39525;DHT22;25203;50.754;6.978;2024-03-02T07:24:08;6.90;99.90
39525;DHT22;25203;50.754;6.978;2024-03-02T07:26:13;7.00;99.90
39525;DHT22;25203;50.754;6.978;2024-03-02T07:28:13;7.10;99.90
39525;DHT22;25203;50.754;6.978;2024-03-02T07:30:15;7.20;99.90
39525;DHT22;25203;50.754;6.978;2024-03-02T07:32:16;7.30;99.90
39525;DHT22;25203;50.754;6.978;2024-03-02T07:34:17;7.50;99.90
39525;DHT22;25203;50.754;6.978;2024-03-02T07:36:17;8.10;99.90
39525;DHT22;25203;50.754;6.978;2024-03-02T07:38:20;9.00;99.90
39525;DHT22;25203;50.754;6.978;2024-03-02T07:40:20;9.80;99.90
39525;DHT22;25203;50.754;6.978;2024-03-02T07:42:21;10.50;99.90
39525;DHT22;25203;50.754;6.978;2024-03-02T07:44:22;11.10;99.90
39525;DHT22;25203;50.754;6.978;2024-03-02T07:46:23;11.30;99.90
39525;DHT22;25203;50.754;6.978;2024-03-02T07:48:23;11.40;99.60
39525;DHT22;25203;50.754;6.978;2024-03-02T07:50:24;11.40;99.30
39525;DHT22;25203;50.754;6.978;2024-03-02T07:52:24;11.70;99.00
39525;DHT22;25203;50.754;6.978;2024-03-02T07:54:25;12.10;98.20
39525;DHT22;25203;50.754;6.978;2024-03-02T07:56:26;12.30;97.90
39525;DHT22;25203;50.754;6.978;2024-03-02T07:58:27;12.30;97.90
39525;DHT22;25203;50.754;6.978;2024-03-02T08:00:28;12.50;97.60
39525;DHT22;25203;50.754;6.978;2024-03-02T08:02:29;12.60;97.40
39525;DHT22;25203;50.754;6.978;2024-03-02T08:04:29;12.80;97.20
39525;DHT22;25203;50.754;6.978;2024-03-02T08:06:30;13.10;97.10
39525;DHT22;25203;50.754;6.978;2024-03-02T08:08:31;13.20;96.50
39525;DHT22;25203;50.754;6.978;2024-03-02T08:10:31;13.60;96.50
39525;DHT22;25203;50.754;6.978;2024-03-02T08:12:34;13.80;95.60
39525;DHT22;25203;50.754;6.978;2024-03-02T08:14:34;14.10;95.50
39525;DHT22;25203;50.754;6.978;2024-03-02T08:16:35;14.10;95.50
39525;DHT22;25203;50.754;6.978;2024-03-02T08:18:35;14.10;95.30
39525;DHT22;25203;50.754;6.978;2024-03-02T08:20:36;14.10;95.40
39525;DHT22;25203;50.754;6.978;2024-03-02T08:22:37;13.10;96.00
39525;DHT22;25203;50.754;6.978;2024-03-02T08:24:37;12.00;97.70
39525;DHT22;25203;50.754;6.978;2024-03-02T08:26:38;11.50;98.30
39525;DHT22;25203;50.754;6.978;2024-03-02T08:28:39;11.10;99.60
39525;DHT22;25203;50.754;6.978;2024-03-02T08:30:44;10.80;99.70
39525;DHT22;25203;50.754;6.978;2024-03-02T08:32:45;10.60;99.90
39525;DHT22;25203;50.754;6.978;2024-03-02T08:34:47;10.40;99.90
39525;DHT22;25203;50.754;6.978;2024-03-02T08:36:48;10.30;99.90
39525;DHT22;25203;50.754;6.978;2024-03-02T08:38:51;10.50;99.90
39525;DHT22;25203;50.754;6.978;2024-03-02T08:40:53;10.50;99.90
39525;DHT22;25203;50.754;6.978;2024-03-02T08:42:54;10.80;99.90
39525;DHT22;25203;50.754;6.978;2024-03-02T08:44:55;11.80;99.30
39525;DHT22;25203;50.754;6.978;2024-03-02T08:46:56;12.90;98.00
39525;DHT22;25203;50.754;6.978;2024-03-02T08:48:56;13.60;96.50
39525;DHT22;25203;50.754;6.978;2024-03-02T08:50:57;14.10;96.10
39525;DHT22;25203;50.754;6.978;2024-03-02T08:52:58;14.40;95.30
39525;DHT22;25203;50.754;6.978;2024-03-02T08:54:58;14.40;95.40
39525;DHT22;25203;50.754;6.978;2024-03-02T08:56:59;14.40;95.30
39525;DHT22;25203;50.754;6.978;2024-03-02T08:59:00;14.30;95.20
39525;DHT22;25203;50.754;6.978;2024-03-02T09:01:00;14.20;95.60
39525;DHT22;25203;50.754;6.978;2024-03-02T09:03:02;14.20;95.30
39525;DHT22;25203;50.754;6.978;2024-03-02T09:05:02;14.30;95.00
39525;DHT22;25203;50.754;6.978;2024-03-02T09:07:03;14.40;94.80
39525;DHT22;25203;50.754;6.978;2024-03-02T09:09:04;14.20;95.00
39525;DHT22;25203;50.754;6.978;2024-03-02T09:11:05;14.10;94.90
39525;DHT22;25203;50.754;6.978;2024-03-02T09:13:07;14.20;95.00
39525;DHT22;25203;50.754;6.978;2024-03-02T09:15:07;14.30;95.10
39525;DHT22;25203;50.754;6.978;2024-03-02T09:17:08;14.60;94.60
39525;DHT22;25203;50.754;6.978;2024-03-02T09:19:11;14.50;94.60
39525;DHT22;25203;50.754;6.978;2024-03-02T09:21:11;14.60;94.70
39525;DHT22;25203;50.754;6.978;2024-03-02T09:23:12;15.30;94.20
39525;DHT22;25203;50.754;6.978;2024-03-02T09:25:13;15.50;93.60
39525;DHT22;25203;50.754;6.978;2024-03-02T09:27:13;15.30;93.90
39525;DHT22;25203;50.754;6.978;2024-03-02T09:29:14;15.70;93.70
39525;DHT22;25203;50.754;6.978;2024-03-02T09:31:15;16.10;92.70
39525;DHT22;25203;50.754;6.978;2024-03-02T09:33:15;16.10;92.40
39525;DHT22;25203;50.754;6.978;2024-03-02T09:35:16;16.10;92.30
39525;DHT22;25203;50.754;6.978;2024-03-02T09:37:16;16.00;92.70
39525;DHT22;25203;50.754;6.978;2024-03-02T09:39:17;16.30;92.20
39525;DHT22;25203;50.754;6.978;2024-03-02T09:41:19;16.20;92.20
39525;DHT22;25203;50.754;6.978;2024-03-02T09:43:19;16.30;92.10
39525;DHT22;25203;50.754;6.978;2024-03-02T09:45:23;16.50;91.90
39525;DHT22;25203;50.754;6.978;2024-03-02T09:47:24;16.30;91.70
39525;DHT22;25203;50.754;6.978;2024-03-02T09:49:24;15.70;92.60
39525;DHT22;25203;50.754;6.978;2024-03-02T09:51:26;15.10;93.10
39525;DHT22;25203;50.754;6.978;2024-03-02T09:53:32;14.60;93.50
39525;DHT22;25203;50.754;6.978;2024-03-02T09:55:33;14.50;94.20
39525;DHT22;25203;50.754;6.978;2024-03-02T09:57:34;14.20;94.20
39525;DHT22;25203;50.754;6.978;2024-03-02T09:59:35;14.00;94.20
39525;DHT22;25203;50.754;6.978;2024-03-02T10:01:36;14.20;94.60
39525;DHT22;25203;50.754;6.978;2024-03-02T10:03:36;14.60;94.30
39525;DHT22;25203;50.754;6.978;2024-03-02T10:05:37;15.10;93.10
39525;DHT22;25203;50.754;6.978;2024-03-02T10:07:38;15.60;92.90
39525;DHT22;25203;50.754;6.978;2024-03-02T10:09:39;16.10;92.30
39525;DHT22;25203;50.754;6.978;2024-03-02T10:11:40;16.10;92.20
39525;DHT22;25203;50.754;6.978;2024-03-02T10:13:41;16.40;92.10
39525;DHT22;25203;50.754;6.978;2024-03-02T10:15:41;16.80;91.70
39525;DHT22;25203;50.754;6.978;2024-03-02T10:17:42;16.80;91.30
39525;DHT22;25203;50.754;6.978;2024-03-02T10:19:43;16.90;91.10
39525;DHT22;25203;50.754;6.978;2024-03-02T10:21:47;17.20;91.10
39525;DHT22;25203;50.754;6.978;2024-03-02T10:23:47;17.70;90.20
39525;DHT22;25203;50.754;6.978;2024-03-02T10:25:48;17.80;89.90
39525;DHT22;25203;50.754;6.978;2024-03-02T10:27:50;17.40;90.30
39525;DHT22;25203;50.754;6.978;2024-03-02T10:29:51;17.70;89.40
39525;DHT22;25203;50.754;6.978;2024-03-02T10:31:52;17.20;90.30
39525;DHT22;25203;50.754;6.978;2024-03-02T10:33:55;17.30;90.60
39525;DHT22;25203;50.754;6.978;2024-03-02T10:35:56;17.20;89.70
39525;DHT22;25203;50.754;6.978;2024-03-02T10:37:58;16.70;90.60
39525;DHT22;25203;50.754;6.978;2024-03-02T10:40:05;17.00;89.70
39525;DHT22;25203;50.754;6.978;2024-03-02T10:42:07;15.80;90.90
39525;DHT22;25203;50.754;6.978;2024-03-02T10:44:09;15.20;91.70
39525;DHT22;25203;50.754;6.978;2024-03-02T10:46:10;15.30;91.80
39525;DHT22;25203;50.754;6.978;2024-03-02T10:48:12;15.50;92.00
39525;DHT22;25203;50.754;6.978;2024-03-02T10:50:13;15.30;92.10
39525;DHT22;25203;50.754;6.978;2024-03-02T10:52:14;15.30;92.40
39525;DHT22;25203;50.754;6.978;2024-03-02T10:54:14;14.90;92.10
39525;DHT22;25203;50.754;6.978;2024-03-02T10:56:27;14.70;92.30
39525;DHT22;25203;50.754;6.978;2024-03-02T10:58:32;15.00;92.50
39525;DHT22;25203;50.754;6.978;2024-03-02T11:00:34;15.30;92.60
39525;DHT22;25203;50.754;6.978;2024-03-02T11:02:36;14.80;92.40
39525;DHT22;25203;50.754;6.978;2024-03-02T11:04:39;14.10;93.20
39525;DHT22;25203;50.754;6.978;2024-03-02T11:06:48;13.80;93.90
39525;DHT22;25203;50.754;6.978;2024-03-02T11:08:49;13.50;94.50
39525;DHT22;25203;50.754;6.978;2024-03-02T11:10:56;13.30;94.50
39525;DHT22;25203;50.754;6.978;2024-03-02T11:13:02;13.10;94.80
39525;DHT22;25203;50.754;6.978;2024-03-02T11:15:06;12.80;95.20
39525;DHT22;25203;50.754;6.978;2024-03-02T11:17:11;12.60;95.30
39525;DHT22;25203;50.754;6.978;2024-03-02T11:19:14;12.50;96.10
39525;DHT22;25203;50.754;6.978;2024-03-02T11:21:16;12.50;95.70
39525;DHT22;25203;50.754;6.978;2024-03-02T11:23:17;12.50;96.30
39525;DHT22;25203;50.754;6.978;2024-03-02T11:25:28;12.50;96.10
39525;DHT22;25203;50.754;6.978;2024-03-02T11:29:48;12.60;96.80
39525;DHT22;25203;50.754;6.978;2024-03-02T11:31:57;13.10;95.80
39525;DHT22;25203;50.754;6.978;2024-03-02T11:34:17;13.90;96.00
39525;DHT22;25203;50.754;6.978;2024-03-02T11:36:19;14.60;94.30
39525;DHT22;25203;50.754;6.978;2024-03-02T11:38:19;15.20;93.50
39525;DHT22;25203;50.754;6.978;2024-03-02T11:40:24;15.90;92.80
39525;DHT22;25203;50.754;6.978;2024-03-02T11:42:26;16.40;92.20
39525;DHT22;25203;50.754;6.978;2024-03-02T11:44:27;16.20;91.60
39525;DHT22;25203;50.754;6.978;2024-03-02T11:46:28;15.50;92.50
39525;DHT22;25203;50.754;6.978;2024-03-02T11:48:29;14.70;93.30
39525;DHT22;25203;50.754;6.978;2024-03-02T11:50:33;14.10;93.90
39525;DHT22;25203;50.754;6.978;2024-03-02T11:52:34;13.80;94.30
39525;DHT22;25203;50.754;6.978;2024-03-02T11:54:37;13.70;94.50
39525;DHT22;25203;50.754;6.978;2024-03-02T11:56:39;13.70;95.00
39525;DHT22;25203;50.754;6.978;2024-03-02T11:58:41;13.50;95.00
39525;DHT22;25203;50.754;6.978;2024-03-02T12:00:42;13.20;95.90
39525;DHT22;25203;50.754;6.978;2024-03-02T12:02:42;13.10;95.50
39525;DHT22;25203;50.754;6.978;2024-03-02T12:04:48;13.00;96.30
39525;DHT22;25203;50.754;6.978;2024-03-02T12:06:59;13.20;96.20
39525;DHT22;25203;50.754;6.978;2024-03-02T12:09:03;13.70;95.50
39525;DHT22;25203;50.754;6.978;2024-03-02T12:11:04;14.50;95.10
39525;DHT22;25203;50.754;6.978;2024-03-02T12:13:07;15.00;94.60
39525;DHT22;25203;50.754;6.978;2024-03-02T12:15:10;15.20;94.00
39525;DHT22;25203;50.754;6.978;2024-03-02T12:17:10;15.30;94.30
39525;DHT22;25203;50.754;6.978;2024-03-02T12:19:11;15.00;93.80
39525;DHT22;25203;50.754;6.978;2024-03-02T12:21:12;14.90;94.10
39525;DHT22;25203;50.754;6.978;2024-03-02T12:23:12;14.70;94.20
39525;DHT22;25203;50.754;6.978;2024-03-02T12:25:13;14.70;94.20
39525;DHT22;25203;50.754;6.978;2024-03-02T12:27:15;14.80;94.30
39525;DHT22;25203;50.754;6.978;2024-03-02T12:29:18;15.00;93.90
39525;DHT22;25203;50.754;6.978;2024-03-02T12:31:19;15.40;93.70
39525;DHT22;25203;50.754;6.978;2024-03-02T12:33:20;15.60;93.30
39525;DHT22;25203;50.754;6.978;2024-03-02T12:35:20;15.50;93.40
39525;DHT22;25203;50.754;6.978;2024-03-02T12:37:21;15.20;93.70
39525;DHT22;25203;50.754;6.978;2024-03-02T12:39:22;15.00;93.70
39525;DHT22;25203;50.754;6.978;2024-03-02T12:41:23;14.70;94.10
39525;DHT22;25203;50.754;6.978;2024-03-02T12:43:24;14.50;94.30
39525;DHT22;25203;50.754;6.978;2024-03-02T12:45:29;14.20;94.50
39525;DHT22;25203;50.754;6.978;2024-03-02T12:47:30;14.30;95.00
39525;DHT22;25203;50.754;6.978;2024-03-02T12:49:30;14.60;94.60
39525;DHT22;25203;50.754;6.978;2024-03-02T12:51:32;14.90;94.80
39525;DHT22;25203;50.754;6.978;2024-03-02T12:53:33;14.90;94.30
39525;DHT22;25203;50.754;6.978;2024-03-02T12:55:34;14.60;94.20
39525;DHT22;25203;50.754;6.978;2024-03-02T12:57:35;14.20;94.90
39525;DHT22;25203;50.754;6.978;2024-03-02T12:59:36;14.20;94.80